Time;durP1;ratioP1;P1;durP2;ratioP2;P2;SDS_P1;SDS_P2;PMS_P1;PMS_P2;Temp;Humidity;BMP_temperature;BMP_pressure;BME280_temperature;BME280_humidity;BME280_pressure;Samples;Min_cycle;Max_cycle;Signal;HPM_P1;HPM_P2
2024/01/19 00:00:14;;;;;;;49.33;24.17;;;;;;;;;;12984819;22;20433;-88
2024/01/19 00:05:18;;;;;;;45.78;22.45;;;;;;;;;;12985793;22;20371;-86
2024/01/19 00:10:22;;;;;;;46.40;22.67;;;;;;;;;;12982014;22;20454;-88
2024/01/19 00:15:24;;;;;;;47.15;23.38;;;;;;;;;;13005992;22;20374;-87
2024/01/19 00:20:26;;;;;;;45.72;23.45;;;;;;;;;;12985251;22;20734;-88
2024/01/19 00:25:30;;;;;;;47.13;23.73;;;;;;;;;;12985316;22;20370;-88
2024/01/19 00:30:32;;;;;;;39.97;23.02;;;;;;;;;;13006097;22;20362;-88
2024/01/19 00:35:35;;;;;;;44.08;24.13;;;;;;;;;;12984606;22;20383;-89
2024/01/19 00:40:38;;;;;;;45.80;23.75;;;;;;;;;;12984411;22;20363;-87
2024/01/19 00:45:41;;;;;;;44.67;24.97;;;;;;;;;;13004912;22;20394;-88
2024/01/19 00:50:43;;;;;;;49.00;23.88;;;;;;;;;;13006543;22;20420;-88
2024/01/19 00:55:47;;;;;;;46.17;23.25;;;;;;;;;;12983538;22;20382;-88
2024/01/19 01:00:49;;;;;;;48.10;23.73;;;;;;;;;;12984063;22;20367;-87
2024/01/19 01:05:56;;;;;;;47.30;24.85;;;;;;;;;;12983539;22;20416;-88
2024/01/19 01:10:59;;;;;;;46.63;24.17;;;;;;;;;;12983015;22;20358;-87
2024/01/19 01:16:02;;;;;;;45.03;22.70;;;;;;;;;;12983970;22;20408;-88
2024/01/19 01:21:04;;;;;;;44.60;23.83;;;;;;;;;;13005207;22;20412;-87
2024/01/19 01:26:08;;;;;;;44.60;23.67;;;;;;;;;;12981948;22;20432;-88
2024/01/19 01:31:10;;;;;;;44.73;24.40;;;;;;;;;;12984767;22;20359;-88
2024/01/19 01:36:12;;;;;;;47.97;24.20;;;;;;;;;;12984950;22;20386;-88
2024/01/19 01:41:16;;;;;;;44.53;23.97;;;;;;;;;;12982688;22;20480;-88
2024/01/19 01:46:18;;;;;;;43.33;24.23;;;;;;;;;;12984802;22;20366;-87
2024/01/19 01:51:21;;;;;;;42.45;22.45;;;;;;;;;;12983776;22;20473;-88
2024/01/19 01:56:27;;;;;;;40.50;22.20;;;;;;;;;;12983355;22;20366;-88
2024/01/19 02:01:29;;;;;;;42.85;21.63;;;;;;;;;;12982420;22;20358;-87
2024/01/19 02:06:31;;;;;;;40.13;20.77;;;;;;;;;;12984565;22;20379;-87
2024/01/19 02:11:36;;;;;;;41.40;21.70;;;;;;;;;;12987711;22;20421;-88
2024/01/19 02:16:39;;;;;;;36.08;19.58;;;;;;;;;;13008461;22;20687;-87
2024/01/19 02:21:41;;;;;;;36.47;19.43;;;;;;;;;;12987734;22;20370;-87
2024/01/19 02:26:45;;;;;;;37.80;19.43;;;;;;;;;;12987236;22;20370;-88
2024/01/19 02:31:47;;;;;;;33.80;18.80;;;;;;;;;;12983409;22;20951;-88
2024/01/19 02:36:50;;;;;;;36.07;18.73;;;;;;;;;;13006709;22;20429;-87
2024/01/19 02:41:53;;;;;;;35.93;18.70;;;;;;;;;;12996025;22;20676;-87
2024/01/19 02:46:56;;;;;;;37.50;19.55;;;;;;;;;;13008312;22;20362;-88
2024/01/19 02:51:58;;;;;;;33.70;18.38;;;;;;;;;;12987073;22;20401;-88
2024/01/19 02:57:02;;;;;;;33.97;18.37;;;;;;;;;;13006899;22;20363;-88
2024/01/19 03:02:05;;;;;;;37.03;19.35;;;;;;;;;;12986197;22;20736;-88
2024/01/19 03:07:07;;;;;;;36.53;18.30;;;;;;;;;;12985407;22;20363;-88
2024/01/19 03:12:11;;;;;;;33.40;18.00;;;;;;;;;;12985264;22;20891;-88
2024/01/19 03:17:14;;;;;;;33.60;18.67;;;;;;;;;;12986466;22;20375;-88
2024/01/19 03:22:16;;;;;;;32.28;19.10;;;;;;;;;;12985343;22;20412;-87
2024/01/19 03:27:20;;;;;;;33.70;18.83;;;;;;;;;;12986724;22;20448;-88
2024/01/19 03:32:23;;;;;;;30.83;17.08;;;;;;;;;;12984323;22;20382;-88
2024/01/19 03:37:25;;;;;;;34.30;17.02;;;;;;;;;;13006903;22;20358;-88
2024/01/19 03:42:29;;;;;;;30.00;15.95;;;;;;;;;;12985181;22;20428;-88
2024/01/19 03:47:31;;;;;;;28.65;15.60;;;;;;;;;;12985759;22;20362;-88
2024/01/19 03:52:34;;;;;;;27.88;15.65;;;;;;;;;;12984803;22;20378;-88
2024/01/19 03:57:38;;;;;;;24.45;14.30;;;;;;;;;;12985278;22;20370;-88
2024/01/19 04:02:40;;;;;;;25.45;14.32;;;;;;;;;;12985235;22;20832;-88
2024/01/19 04:07:42;;;;;;;25.08;14.13;;;;;;;;;;12985557;22;20367;-87
2024/01/19 04:12:46;;;;;;;23.33;12.90;;;;;;;;;;12984902;22;20426;-88
2024/01/19 04:17:48;;;;;;;26.85;13.80;;;;;;;;;;12985542;22;20367;-87
2024/01/19 04:22:51;;;;;;;22.45;12.80;;;;;;;;;;12983937;22;20367;-88
2024/01/19 04:27:56;;;;;;;23.73;13.75;;;;;;;;;;12984552;22;20696;-88
2024/01/19 04:32:58;;;;;;;24.45;13.80;;;;;;;;;;12985133;22;20695;-88
2024/01/19 04:38:00;;;;;;;20.25;12.75;;;;;;;;;;12985749;22;20363;-88
2024/01/19 04:43:04;;;;;;;24.33;12.95;;;;;;;;;;12984407;22;20367;-88
2024/01/19 04:48:07;;;;;;;22.70;12.50;;;;;;;;;;12984065;22;20355;-87
2024/01/19 04:53:09;;;;;;;24.00;12.48;;;;;;;;;;12982952;22;20378;-88
2024/01/19 04:58:13;;;;;;;21.60;12.60;;;;;;;;;;12984167;22;20389;-87
2024/01/19 05:03:16;;;;;;;25.55;13.32;;;;;;;;;;12983607;22;20448;-88
2024/01/19 05:08:18;;;;;;;25.05;13.13;;;;;;;;;;12983795;22;20428;-86
2024/01/19 05:13:22;;;;;;;22.70;12.60;;;;;;;;;;12982336;22;20383;-88
2024/01/19 05:18:24;;;;;;;24.08;13.63;;;;;;;;;;12984593;22;20835;-87
2024/01/19 05:23:27;;;;;;;25.02;13.77;;;;;;;;;;12982686;22;20920;-88
2024/01/19 05:28:32;;;;;;;21.58;12.98;;;;;;;;;;12983896;22;20366;-87
2024/01/19 05:33:35;;;;;;;22.95;12.73;;;;;;;;;;12982842;22;20383;-86
2024/01/19 05:38:38;;;;;;;22.43;12.87;;;;;;;;;;12982506;22;20367;-86
2024/01/19 05:43:41;;;;;;;22.48;12.07;;;;;;;;;;12983025;22;20370;-87
2024/01/19 05:48:44;;;;;;;21.25;12.77;;;;;;;;;;12982380;22;20363;-88
2024/01/19 05:53:46;;;;;;;21.73;11.87;;;;;;;;;;12981744;22;20936;-87
2024/01/19 05:58:50;;;;;;;20.83;11.90;;;;;;;;;;12980593;22;20849;-88
2024/01/19 06:03:52;;;;;;;17.75;10.85;;;;;;;;;;12982056;22;20382;-86
2024/01/19 06:08:54;;;;;;;17.58;11.05;;;;;;;;;;12979733;22;20359;-87
2024/01/19 06:13:58;;;;;;;21.60;11.35;;;;;;;;;;12977326;22;20382;-87
2024/01/19 06:19:00;;;;;;;17.58;11.48;;;;;;;;;;12979017;22;20923;-86
2024/01/19 06:24:03;;;;;;;19.60;11.95;;;;;;;;;;12979303;22;20513;-87
2024/01/19 06:29:06;;;;;;;20.42;11.38;;;;;;;;;;12979244;22;20409;-86
2024/01/19 06:34:09;;;;;;;20.40;11.47;;;;;;;;;;12977631;22;20412;-85
2024/01/19 06:39:11;;;;;;;18.77;10.82;;;;;;;;;;12980043;22;20407;-86
2024/01/19 06:44:15;;;;;;;20.67;11.55;;;;;;;;;;12977969;22;20386;-85
2024/01/19 06:49:17;;;;;;;42.80;21.20;;;;;;;;;;12978916;22;20366;-85
2024/01/19 06:54:19;;;;;;;80.63;40.03;;;;;;;;;;12976424;22;20436;-85
2024/01/19 06:59:23;;;;;;;47.40;24.33;;;;;;;;;;12979488;22;20362;-87
2024/01/19 07:04:25;;;;;;;35.90;19.20;;;;;;;;;;12983375;22;20367;-87
2024/01/19 07:09:28;;;;;;;25.67;15.63;;;;;;;;;;12984120;22;20367;-87
2024/01/19 07:14:31;;;;;;;21.30;12.60;;;;;;;;;;13006052;22;20378;-87
2024/01/19 07:19:35;;;;;;;21.40;12.65;;;;;;;;;;12986216;22;20419;-87
2024/01/19 07:24:38;;;;;;;22.10;12.87;;;;;;;;;;12983116;22;20417;-86
2024/01/19 07:29:42;;;;;;;21.40;13.35;;;;;;;;;;13002878;22;20359;-87
2024/01/19 07:34:44;;;;;;;22.63;12.60;;;;;;;;;;12983541;22;20383;-87
2024/01/19 07:39:46;;;;;;;20.45;12.82;;;;;;;;;;12984453;22;20363;-87
2024/01/19 07:44:50;;;;;;;25.88;14.60;;;;;;;;;;12984698;22;20692;-86
2024/01/19 07:49:53;;;;;;;26.80;13.67;;;;;;;;;;12983831;22;20925;-84
2024/01/19 07:54:55;;;;;;;23.98;12.88;;;;;;;;;;12983198;22;20448;-85
2024/01/19 07:59:59;;;;;;;34.80;17.70;;;;;;;;;;12983435;22;20444;-86
2024/01/19 08:05:02;;;;;;;32.92;17.98;;;;;;;;;;12982174;22;20363;-88
2024/01/19 08:10:05;;;;;;;21.85;13.10;;;;;;;;;;12981966;22;20444;-84
2024/01/19 08:15:10;;;;;;;25.58;13.40;;;;;;;;;;12981385;22;20413;-84
2024/01/19 08:20:12;;;;;;;25.87;14.67;;;;;;;;;;12982092;22;20424;-84
2024/01/19 08:25:15;;;;;;;27.73;15.68;;;;;;;;;;12926571;22;20454;-85
2024/01/19 08:30:20;;;;;;;23.60;14.50;;;;;;;;;;12917557;22;20426;-85
2024/01/19 08:35:22;;;;;;;35.03;15.73;;;;;;;;;;12942553;23;20662;-90
2024/01/19 08:40:24;;;;;;;37.70;16.00;;;;;;;;;;12923710;22;20368;-89
2024/01/19 08:45:28;;;;;;;27.77;15.35;;;;;;;;;;12920218;22;20372;-89
2024/01/19 08:50:30;;;;;;;27.53;15.13;;;;;;;;;;12920416;22;20757;-84
2024/01/19 08:55:33;;;;;;;26.07;14.37;;;;;;;;;;12918929;22;20712;-86
2024/01/19 09:00:36;;;;;;;24.17;13.93;;;;;;;;;;12917366;22;20368;-87
2024/01/19 09:05:39;;;;;;;22.35;14.18;;;;;;;;;;12918636;22;20364;-86
2024/01/19 09:10:41;;;;;;;26.05;15.65;;;;;;;;;;12918431;22;20372;-86
2024/01/19 09:15:45;;;;;;;26.63;15.88;;;;;;;;;;12918584;22;20422;-85
2024/01/19 09:20:47;;;;;;;13.07;7.63;;;;;;;;;;12918857;22;20380;-86
2024/01/19 09:25:49;;;;;;;5.20;2.80;;;;;;;;;;12917551;22;20368;-86
2024/01/19 09:30:53;;;;;;;2.20;1.10;;;;;;;;;;12917179;23;20824;-86
2024/01/19 09:35:55;;;;;;;1.47;1.10;;;;;;;;;;12937986;23;20451;-86
2024/01/19 09:41:15;;;;;;;2.15;1.02;;;;;;;;;;12917885;22;20883;-86
2024/01/19 09:46:22;;;;;;;1.42;0.77;;;;;;;;;;12918676;22;20431;-86
2024/01/19 09:51:33;;;;;;;1.00;0.77;;;;;;;;;;12918499;22;20418;-83
2024/01/19 09:56:36;;;;;;;1.58;0.60;;;;;;;;;;12918268;22;20393;-86
2024/01/19 10:01:40;;;;;;;1.30;0.50;;;;;;;;;;12917538;22;20411;-86
2024/01/19 10:06:44;;;;;;;0.73;0.50;;;;;;;;;;12918654;22;20439;-85
2024/01/19 10:11:47;;;;;;;0.52;0.50;;;;;;;;;;12937928;23;20923;-86
2024/01/19 10:16:51;;;;;;;0.75;0.30;;;;;;;;;;12918245;22;20455;-85
2024/01/19 10:21:53;;;;;;;0.60;0.60;;;;;;;;;;12939172;23;20811;-86
2024/01/19 10:26:56;;;;;;;0.97;0.40;;;;;;;;;;12918695;22;20415;-86
2024/01/19 10:32:02;;;;;;;0.60;0.60;;;;;;;;;;12921365;22;20419;-86
2024/01/19 10:37:05;;;;;;;0.90;0.50;;;;;;;;;;12920007;22;20507;-85
2024/01/19 10:42:09;;;;;;;1.42;0.52;;;;;;;;;;12917233;22;20909;-85
2024/01/19 10:47:14;;;;;;;1.77;0.60;;;;;;;;;;12922296;22;20474;-86
2024/01/19 10:52:18;;;;;;;0.45;0.32;;;;;;;;;;12922321;22;20356;-87
2024/01/19 10:57:25;;;;;;;0.63;0.57;;;;;;;;;;12922106;22;20860;-87
2024/01/19 11:02:29;;;;;;;0.50;0.50;;;;;;;;;;12922247;22;20487;-88
2024/01/19 11:07:32;;;;;;;0.88;0.60;;;;;;;;;;12925098;22;20411;-90
2024/01/19 11:12:37;;;;;;;0.40;0.40;;;;;;;;;;12921170;22;20765;-84
2024/01/19 11:17:41;;;;;;;0.40;0.30;;;;;;;;;;12919491;22;20494;-85
2024/01/19 11:22:44;;;;;;;0.40;0.30;;;;;;;;;;12930155;23;20417;-85
2024/01/19 11:27:51;;;;;;;0.68;0.50;;;;;;;;;;12917785;22;20364;-85
2024/01/19 11:32:55;;;;;;;0.82;0.60;;;;;;;;;;12919316;22;20372;-85
2024/01/19 11:37:57;;;;;;;0.88;0.57;;;;;;;;;;12917297;22;20411;-85
2024/01/19 11:42:59;;;;;;;1.33;0.60;;;;;;;;;;12918249;22;20844;-85
2024/01/19 11:48:03;;;;;;;1.13;0.73;;;;;;;;;;12918754;22;20907;-85
2024/01/19 11:53:08;;;;;;;0.40;0.38;;;;;;;;;;12918334;22;20356;-84
2024/01/19 11:58:34;;;;;;;1.02;0.70;;;;;;;;;;12918286;22;20418;-85
2024/01/19 12:03:38;;;;;;;1.03;0.70;;;;;;;;;;12938753;23;20482;-85
2024/01/19 12:08:41;;;;;;;0.70;0.70;;;;;;;;;;12917817;22;20369;-83
2024/01/19 12:13:49;;;;;;;0.82;0.77;;;;;;;;;;12916431;22;20412;-87
2024/01/19 12:18:55;;;;;;;2.15;1.00;;;;;;;;;;12919263;22;20458;-88
2024/01/19 12:23:58;;;;;;;1.20;0.70;;;;;;;;;;12913788;22;20376;-86
2024/01/19 12:29:01;;;;;;;0.60;0.60;;;;;;;;;;12909307;22;20385;-85
2024/01/19 12:34:13;;;;;;;0.50;0.50;;;;;;;;;;12910462;22;21122;-85
2024/01/19 12:39:21;;;;;;;1.25;0.73;;;;;;;;;;12908495;23;20485;-85
2024/01/19 12:44:24;;;;;;;1.90;1.20;;;;;;;;;;12907871;22;20503;-82
2024/01/19 12:49:28;;;;;;;1.27;0.60;;;;;;;;;;12907544;22;20415;-84
2024/01/19 12:54:42;;;;;;;0.82;0.60;;;;;;;;;;12908139;22;20432;-83
2024/01/19 12:59:44;;;;;;;2.13;1.48;;;;;;;;;;12906103;22;20384;-83
2024/01/19 13:04:50;;;;;;;1.77;1.00;;;;;;;;;;12906425;22;20376;-83
2024/01/19 13:10:01;;;;;;;62.53;20.67;;;;;;;;;;12907532;22;20437;-85
2024/01/19 13:15:04;;;;;;;3.90;1.70;;;;;;;;;;12907935;22;20377;-85
2024/01/19 13:20:12;;;;;;;3.27;1.40;;;;;;;;;;12912376;22;20380;-86
2024/01/19 13:25:14;;;;;;;2.03;0.93;;;;;;;;;;12911136;22;21529;-88
2024/01/19 13:30:17;;;;;;;1.70;1.00;;;;;;;;;;12915479;22;20376;-86
2024/01/19 13:35:23;;;;;;;9.93;2.95;;;;;;;;;;12915678;23;20419;-83
2024/01/19 13:40:26;;;;;;;1.42;0.90;;;;;;;;;;12909916;22;20852;-84
2024/01/19 13:45:28;;;;;;;2.28;1.35;;;;;;;;;;12912867;22;21029;-82
2024/01/19 13:50:32;;;;;;;2.53;1.60;;;;;;;;;;12934291;23;20360;-82
2024/01/19 13:55:34;;;;;;;4.80;1.97;;;;;;;;;;12915980;23;20922;-87
2024/01/19 14:00:37;;;;;;;2.28;1.13;;;;;;;;;;12918636;22;20446;-87
2024/01/19 14:05:41;;;;;;;1.50;1.10;;;;;;;;;;12939672;23;20369;-86
2024/01/19 14:10:48;;;;;;;1.83;1.17;;;;;;;;;;12940269;23;20426;-86
2024/01/19 14:15:51;;;;;;;1.20;0.82;;;;;;;;;;12940029;23;20380;-86
2024/01/19 14:20:55;;;;;;;1.83;1.20;;;;;;;;;;12939200;23;20432;-87
2024/01/19 14:26:00;;;;;;;1.00;0.70;;;;;;;;;;12918083;22;20372;-87
2024/01/19 14:31:03;;;;;;;0.93;0.90;;;;;;;;;;12918713;22;20364;-87
2024/01/19 14:36:08;;;;;;;1.25;0.85;;;;;;;;;;12917860;22;20442;-87
2024/01/19 14:41:10;;;;;;;1.63;1.02;;;;;;;;;;12919264;22;20378;-87
2024/01/19 14:46:14;;;;;;;2.00;1.17;;;;;;;;;;12919003;22;20364;-87
2024/01/19 14:51:18;;;;;;;1.50;0.90;;;;;;;;;;12918372;22;20360;-86
2024/01/19 14:56:20;;;;;;;1.40;0.88;;;;;;;;;;12917422;22;20690;-88
2024/01/19 15:01:23;;;;;;;1.70;0.87;;;;;;;;;;12919703;22;20899;-88
2024/01/19 15:06:27;;;;;;;1.77;1.27;;;;;;;;;;12920173;22;20949;-88
2024/01/19 15:11:29;;;;;;;2.97;1.90;;;;;;;;;;12920552;23;20428;-88
2024/01/19 15:16:32;;;;;;;4.30;2.30;;;;;;;;;;12922983;22;20384;-88
2024/01/19 15:21:35;;;;;;;1.70;1.60;;;;;;;;;;12919750;22;20407;-88
2024/01/19 15:26:39;;;;;;;2.10;1.60;;;;;;;;;;12914765;22;20372;-87
2024/01/19 15:31:41;;;;;;;2.67;1.40;;;;;;;;;;12913642;22;20419;-87
2024/01/19 15:36:45;;;;;;;2.58;1.80;;;;;;;;;;12923201;22;20502;-83
2024/01/19 15:41:48;;;;;;;4.18;1.80;;;;;;;;;;12912047;22;20429;-85
2024/01/19 15:46:50;;;;;;;2.20;1.40;;;;;;;;;;12914242;22;20388;-85
2024/01/19 15:51:54;;;;;;;2.05;1.60;;;;;;;;;;12912368;22;20427;-85
2024/01/19 15:56:56;;;;;;;2.33;1.58;;;;;;;;;;12912304;22;20384;-86
2024/01/19 16:01:58;;;;;;;2.28;1.80;;;;;;;;;;12932983;22;20365;-86
2024/01/19 16:07:02;;;;;;;3.60;2.20;;;;;;;;;;12911587;22;20844;-87
2024/01/19 16:12:05;;;;;;;3.30;2.60;;;;;;;;;;12911318;22;20390;-86
2024/01/19 16:17:09;;;;;;;4.53;2.50;;;;;;;;;;12912518;22;20423;-87
2024/01/19 16:22:13;;;;;;;4.35;2.63;;;;;;;;;;12912194;22;20486;-86
2024/01/19 16:27:15;;;;;;;4.00;3.00;;;;;;;;;;12911315;22;20380;-85
2024/01/19 16:32:17;;;;;;;3.78;2.90;;;;;;;;;;12910295;22;20752;-86
2024/01/19 16:37:21;;;;;;;3.13;2.15;;;;;;;;;;12909648;22;20392;-84
2024/01/19 16:42:24;;;;;;;2.45;1.90;;;;;;;;;;12912261;22;20429;-88
2024/01/19 16:47:27;;;;;;;4.40;2.60;;;;;;;;;;12912992;22;20414;-87
2024/01/19 16:52:31;;;;;;;4.03;2.97;;;;;;;;;;12909553;22;20424;-87
2024/01/19 16:57:36;;;;;;;4.00;2.63;;;;;;;;;;12910287;22;20612;-88
2024/01/19 17:02:38;;;;;;;6.75;4.18;;;;;;;;;;12931199;22;20878;-87
2024/01/19 17:07:42;;;;;;;6.53;3.80;;;;;;;;;;12911304;22;20370;-88
2024/01/19 17:12:45;;;;;;;4.95;3.90;;;;;;;;;;12909013;22;20489;-87
2024/01/19 17:17:47;;;;;;;6.50;4.33;;;;;;;;;;12911985;22;20439;-88
2024/01/19 17:22:52;;;;;;;6.57;4.32;;;;;;;;;;12917773;22;20459;-88
2024/01/19 17:27:55;;;;;;;5.77;3.87;;;;;;;;;;12912962;22;20410;-88
2024/01/19 17:32:57;;;;;;;4.28;3.67;;;;;;;;;;12921239;22;20415;-88
2024/01/19 17:38:00;;;;;;;5.80;3.92;;;;;;;;;;12923245;22;20415;-87
2024/01/19 17:43:04;;;;;;;5.90;3.55;;;;;;;;;;12911476;22;20424;-88
2024/01/19 17:48:07;;;;;;;8.00;5.80;;;;;;;;;;12912989;22;20827;-88
2024/01/19 17:53:10;;;;;;;8.52;5.05;;;;;;;;;;12912465;22;20380;-88
2024/01/19 17:58:13;;;;;;;7.43;4.30;;;;;;;;;;12913388;22;20379;-87
2024/01/19 18:03:19;;;;;;;9.18;4.90;;;;;;;;;;12909798;22;20898;-86
2024/01/19 18:08:25;;;;;;;6.53;4.43;;;;;;;;;;12925382;23;20401;-86
2024/01/19 18:13:27;;;;;;;8.00;5.00;;;;;;;;;;12905641;22;20382;-84
2024/01/19 18:18:30;;;;;;;7.22;4.35;;;;;;;;;;12903679;22;20828;-84
2024/01/19 18:23:34;;;;;;;8.13;4.38;;;;;;;;;;12896895;22;20780;-84
2024/01/19 18:28:36;;;;;;;5.57;3.92;;;;;;;;;;12902198;22;20419;-83
2024/01/19 18:33:41;;;;;;;4.57;3.67;;;;;;;;;;12898553;22;20470;-84
2024/01/19 18:38:44;;;;;;;8.15;5.30;;;;;;;;;;12903509;22;20931;-84
2024/01/19 18:43:47;;;;;;;4.13;3.10;;;;;;;;;;12905857;22;20447;-84
2024/01/19 18:48:52;;;;;;;6.45;4.10;;;;;;;;;;12912535;22;20389;-87
2024/01/19 18:53:56;;;;;;;5.65;3.65;;;;;;;;;;12931389;22;20462;-87
2024/01/19 18:58:59;;;;;;;4.70;3.13;;;;;;;;;;12928410;22;20427;-88
2024/01/19 19:04:01;;;;;;;5.33;3.40;;;;;;;;;;12937610;22;20373;-88
2024/01/19 19:09:05;;;;;;;4.30;2.95;;;;;;;;;;12915772;22;20832;-88
2024/01/19 19:14:09;;;;;;;6.72;4.70;;;;;;;;;;12916704;22;20381;-88
2024/01/19 19:19:16;;;;;;;7.10;4.93;;;;;;;;;;12917706;22;20459;-88
2024/01/19 19:24:20;;;;;;;7.85;5.60;;;;;;;;;;12911722;22;20456;-88
2024/01/19 19:29:22;;;;;;;5.00;4.15;;;;;;;;;;12920509;22;20900;-88
2024/01/19 19:34:26;;;;;;;6.53;4.50;;;;;;;;;;12917840;22;20921;-89
2024/01/19 19:39:34;;;;;;;8.07;4.50;;;;;;;;;;12915158;22;20388;-88
2024/01/19 19:44:36;;;;;;;7.90;5.22;;;;;;;;;;12916991;22;20905;-89
2024/01/19 19:49:39;;;;;;;7.50;5.43;;;;;;;;;;12912437;22;20380;-89
2024/01/19 19:54:42;;;;;;;9.35;7.10;;;;;;;;;;12917132;22;20846;-88
2024/01/19 19:59:45;;;;;;;11.00;5.80;;;;;;;;;;12939099;22;20393;-89
2024/01/19 20:04:47;;;;;;;10.13;6.90;;;;;;;;;;12915373;22;20403;-85
2024/01/19 20:09:51;;;;;;;10.13;6.50;;;;;;;;;;12914218;22;20403;-89
2024/01/19 20:14:53;;;;;;;12.70;8.27;;;;;;;;;;12915913;22;20447;-85
2024/01/19 20:19:56;;;;;;;9.60;7.65;;;;;;;;;;12905147;22;20497;-85
2024/01/19 20:24:59;;;;;;;13.93;7.28;;;;;;;;;;12824633;22;1905887;-85
2024/01/19 20:30:02;;;;;;;12.15;7.53;;;;;;;;;;12909851;22;20496;-80
2024/01/19 20:35:05;;;;;;;12.13;7.90;;;;;;;;;;12910233;22;20773;-87
2024/01/19 20:40:10;;;;;;;14.52;8.20;;;;;;;;;;12910678;22;20432;-86
2024/01/19 20:45:13;;;;;;;12.63;8.30;;;;;;;;;;12924704;22;20474;-85
2024/01/19 20:50:15;;;;;;;15.40;8.83;;;;;;;;;;12907498;22;20414;-87
2024/01/19 20:55:19;;;;;;;15.93;9.82;;;;;;;;;;12922862;22;20372;-87
2024/01/19 21:00:22;;;;;;;15.27;9.00;;;;;;;;;;12908239;22;20951;-86
2024/01/19 21:05:24;;;;;;;16.13;9.98;;;;;;;;;;12912290;23;20373;-87
2024/01/19 21:10:28;;;;;;;13.63;9.07;;;;;;;;;;12910601;22;20357;-87
2024/01/19 21:15:30;;;;;;;14.15;9.05;;;;;;;;;;12906608;22;20380;-88
2024/01/19 21:20:33;;;;;;;16.95;8.88;;;;;;;;;;12911015;22;20845;-87
2024/01/19 21:25:36;;;;;;;13.82;8.63;;;;;;;;;;12917623;22;20868;-87
2024/01/19 21:30:39;;;;;;;15.05;9.45;;;;;;;;;;12919610;22;20462;-86
2024/01/19 21:35:41;;;;;;;13.53;8.43;;;;;;;;;;12908352;22;20380;-87
2024/01/19 21:40:45;;;;;;;14.93;9.90;;;;;;;;;;12912139;22;20438;-87
2024/01/19 21:45:48;;;;;;;17.90;10.60;;;;;;;;;;12902000;22;20454;-86
2024/01/19 21:50:50;;;;;;;18.20;12.07;;;;;;;;;;12903925;22;20795;-87
2024/01/19 21:55:54;;;;;;;16.98;11.57;;;;;;;;;;12905982;22;20376;-86
2024/01/19 22:00:56;;;;;;;24.17;11.27;;;;;;;;;;12908960;22;20380;-86
2024/01/19 22:05:59;;;;;;;18.85;12.75;;;;;;;;;;12908661;22;20418;-86
2024/01/19 22:11:03;;;;;;;17.80;10.80;;;;;;;;;;12910076;22;20442;-86
2024/01/19 22:16:06;;;;;;;17.80;11.27;;;;;;;;;;12910039;22;20376;-86
2024/01/19 22:21:08;;;;;;;19.13;12.87;;;;;;;;;;12914157;22;20714;-86
2024/01/19 22:26:12;;;;;;;20.02;11.93;;;;;;;;;;12913583;22;20937;-86
2024/01/19 22:31:14;;;;;;;20.50;11.97;;;;;;;;;;12907993;22;20376;-89
2024/01/19 22:36:16;;;;;;;21.27;11.85;;;;;;;;;;12911233;22;20465;-86
2024/01/19 22:41:20;;;;;;;20.95;12.40;;;;;;;;;;12906680;22;20384;-87
2024/01/19 22:46:22;;;;;;;20.77;13.00;;;;;;;;;;12918319;22;20368;-86
2024/01/19 22:51:25;;;;;;;20.25;12.27;;;;;;;;;;12922423;22;20399;-85
2024/01/19 22:56:28;;;;;;;18.35;12.27;;;;;;;;;;12922241;22;20372;-86
2024/01/19 23:01:31;;;;;;;18.42;11.80;;;;;;;;;;12943507;23;20376;-86
2024/01/19 23:06:33;;;;;;;18.93;11.73;;;;;;;;;;12921761;22;20364;-86
2024/01/19 23:11:37;;;;;;;18.52;10.88;;;;;;;;;;12921005;22;20426;-86
2024/01/19 23:16:40;;;;;;;17.52;11.50;;;;;;;;;;12922727;22;20414;-86
2024/01/19 23:21:42;;;;;;;23.40;11.63;;;;;;;;;;12917834;22;20384;-87
2024/01/19 23:26:46;;;;;;;17.67;10.82;;;;;;;;;;12915717;22;20390;-86
2024/01/19 23:31:48;;;;;;;17.80;11.10;;;;;;;;;;12918441;22;20902;-85
2024/01/19 23:36:51;;;;;;;19.27;11.35;;;;;;;;;;12920833;22;20356;-86
2024/01/19 23:41:55;;;;;;;18.55;11.07;;;;;;;;;;12921557;22;20388;-87
2024/01/19 23:46:57;;;;;;;16.45;10.80;;;;;;;;;;12921304;22;20368;-86
2024/01/19 23:51:59;;;;;;;18.17;11.20;;;;;;;;;;12922444;22;20361;-86
2024/01/19 23:57:03;;;;;;;18.08;10.52;;;;;;;;;;12922458;22;20392;-86
